sensor_id;sensor_type;location;lat;lon;timestamp;P1;durP1;ratioP1;P2;durP2;ratioP2
47912;SDS011;33676;51.006;17.180;2023-07-02T00:01:00;9.50;;;8.60;;
47912;SDS011;33676;51.006;17.180;2023-07-02T00:03:49;8.60;;;7.60;;
47912;SDS011;33676;51.006;17.180;2023-07-02T00:06:18;8.20;;;7.40;;
47912;SDS011;33676;51.006;17.180;2023-07-02T00:08:49;9.30;;;8.30;;
47912;SDS011;33676;51.006;17.180;2023-07-02T00:11:17;9.60;;;8.60;;
47912;SDS011;33676;51.006;17.180;2023-07-02T00:13:46;8.90;;;7.80;;
47912;SDS011;33676;51.006;17.180;2023-07-02T00:16:14;9.00;;;7.50;;
47912;SDS011;33676;51.006;17.180;2023-07-02T00:18:43;10.60;;;8.50;;
47912;SDS011;33676;51.006;17.180;2023-07-02T00:21:11;9.10;;;8.40;;
47912;SDS011;33676;51.006;17.180;2023-07-02T00:23:41;11.70;;;8.20;;
47912;SDS011;33676;51.006;17.180;2023-07-02T00:26:09;8.80;;;7.90;;
47912;SDS011;33676;51.006;17.180;2023-07-02T00:28:39;11.00;;;8.30;;
47912;SDS011;33676;51.006;17.180;2023-07-02T00:31:08;10.20;;;7.80;;
47912;SDS011;33676;51.006;17.180;2023-07-02T00:33:37;8.40;;;7.60;;
47912;SDS011;33676;51.006;17.180;2023-07-02T00:36:08;11.10;;;8.40;;
47912;SDS011;33676;51.006;17.180;2023-07-02T00:38:44;9.30;;;8.40;;
47912;SDS011;33676;51.006;17.180;2023-07-02T00:41:14;8.90;;;8.00;;
47912;SDS011;33676;51.006;17.180;2023-07-02T00:43:44;9.40;;;8.40;;
47912;SDS011;33676;51.006;17.180;2023-07-02T00:46:18;8.60;;;7.70;;
47912;SDS011;33676;51.006;17.180;2023-07-02T00:48:52;9.00;;;7.70;;
47912;SDS011;33676;51.006;17.180;2023-07-02T00:51:24;10.30;;;8.30;;
47912;SDS011;33676;51.006;17.180;2023-07-02T00:53:55;13.20;;;6.80;;
47912;SDS011;33676;51.006;17.180;2023-07-02T00:56:26;7.40;;;6.00;;
47912;SDS011;33676;51.006;17.180;2023-07-02T00:58:55;8.30;;;5.60;;
47912;SDS011;33676;51.006;17.180;2023-07-02T01:01:27;8.50;;;6.20;;
47912;SDS011;33676;51.006;17.180;2023-07-02T01:04:04;7.00;;;5.70;;
47912;SDS011;33676;51.006;17.180;2023-07-02T01:06:36;6.30;;;5.70;;
47912;SDS011;33676;51.006;17.180;2023-07-02T01:09:10;5.70;;;4.80;;
47912;SDS011;33676;51.006;17.180;2023-07-02T01:11:43;6.00;;;5.00;;
47912;SDS011;33676;51.006;17.180;2023-07-02T01:14:22;6.10;;;4.20;;
47912;SDS011;33676;51.006;17.180;2023-07-02T01:17:01;5.50;;;4.20;;
47912;SDS011;33676;51.006;17.180;2023-07-02T01:22:25;4.10;;;3.70;;
47912;SDS011;33676;51.006;17.180;2023-07-02T01:24:55;4.70;;;3.90;;
47912;SDS011;33676;51.006;17.180;2023-07-02T01:27:24;4.70;;;4.20;;
47912;SDS011;33676;51.006;17.180;2023-07-02T01:29:56;4.50;;;3.30;;
47912;SDS011;33676;51.006;17.180;2023-07-02T01:32:25;6.10;;;4.60;;
47912;SDS011;33676;51.006;17.180;2023-07-02T01:34:53;4.30;;;3.40;;
47912;SDS011;33676;51.006;17.180;2023-07-02T01:37:22;3.70;;;3.40;;
47912;SDS011;33676;51.006;17.180;2023-07-02T01:39:50;3.50;;;3.20;;
47912;SDS011;33676;51.006;17.180;2023-07-02T01:42:19;3.50;;;3.30;;
47912;SDS011;33676;51.006;17.180;2023-07-02T01:44:49;3.30;;;3.00;;
47912;SDS011;33676;51.006;17.180;2023-07-02T01:47:20;4.60;;;3.80;;
47912;SDS011;33676;51.006;17.180;2023-07-02T01:49:49;3.00;;;2.80;;
47912;SDS011;33676;51.006;17.180;2023-07-02T01:52:18;4.10;;;2.30;;
47912;SDS011;33676;51.006;17.180;2023-07-02T01:54:47;3.10;;;2.50;;
47912;SDS011;33676;51.006;17.180;2023-07-02T01:57:15;2.10;;;1.90;;
47912;SDS011;33676;51.006;17.180;2023-07-02T01:59:43;2.40;;;2.30;;
47912;SDS011;33676;51.006;17.180;2023-07-02T02:02:12;1.60;;;1.50;;
47912;SDS011;33676;51.006;17.180;2023-07-02T02:04:40;2.10;;;2.00;;
47912;SDS011;33676;51.006;17.180;2023-07-02T02:07:09;1.70;;;1.60;;
47912;SDS011;33676;51.006;17.180;2023-07-02T02:09:37;2.40;;;2.10;;
47912;SDS011;33676;51.006;17.180;2023-07-02T02:12:08;1.90;;;1.80;;
47912;SDS011;33676;51.006;17.180;2023-07-02T02:14:37;1.80;;;1.70;;
47912;SDS011;33676;51.006;17.180;2023-07-02T02:17:05;2.00;;;1.90;;
47912;SDS011;33676;51.006;17.180;2023-07-02T02:19:34;1.80;;;1.60;;
47912;SDS011;33676;51.006;17.180;2023-07-02T02:22:02;3.20;;;2.30;;
47912;SDS011;33676;51.006;17.180;2023-07-02T02:24:31;1.50;;;1.40;;
47912;SDS011;33676;51.006;17.180;2023-07-02T02:26:59;2.90;;;2.30;;
47912;SDS011;33676;51.006;17.180;2023-07-02T02:29:27;2.50;;;1.80;;
47912;SDS011;33676;51.006;17.180;2023-07-02T02:31:56;1.80;;;1.60;;
47912;SDS011;33676;51.006;17.180;2023-07-02T02:34:24;2.10;;;1.90;;
47912;SDS011;33676;51.006;17.180;2023-07-02T02:36:53;2.10;;;2.00;;
47912;SDS011;33676;51.006;17.180;2023-07-02T02:39:23;10.10;;;2.40;;
47912;SDS011;33676;51.006;17.180;2023-07-02T02:41:52;2.40;;;1.80;;
47912;SDS011;33676;51.006;17.180;2023-07-02T02:44:20;2.20;;;2.00;;
47912;SDS011;33676;51.006;17.180;2023-07-02T02:46:48;1.90;;;1.80;;
47912;SDS011;33676;51.006;17.180;2023-07-02T02:49:17;2.10;;;2.00;;
47912;SDS011;33676;51.006;17.180;2023-07-02T02:51:45;3.50;;;2.40;;
47912;SDS011;33676;51.006;17.180;2023-07-02T02:54:14;2.50;;;2.30;;
47912;SDS011;33676;51.006;17.180;2023-07-02T02:56:42;2.20;;;2.00;;
47912;SDS011;33676;51.006;17.180;2023-07-02T02:59:11;1.90;;;1.80;;
47912;SDS011;33676;51.006;17.180;2023-07-02T03:01:39;1.90;;;1.60;;
47912;SDS011;33676;51.006;17.180;2023-07-02T03:04:08;2.70;;;1.60;;
47912;SDS011;33676;51.006;17.180;2023-07-02T03:06:36;2.10;;;1.70;;
47912;SDS011;33676;51.006;17.180;2023-07-02T03:09:05;1.60;;;1.50;;
47912;SDS011;33676;51.006;17.180;2023-07-02T03:11:33;1.60;;;1.50;;
47912;SDS011;33676;51.006;17.180;2023-07-02T03:14:02;1.60;;;1.50;;
47912;SDS011;33676;51.006;17.180;2023-07-02T03:16:30;1.60;;;1.50;;
47912;SDS011;33676;51.006;17.180;2023-07-02T03:18:59;11.40;;;2.00;;
47912;SDS011;33676;51.006;17.180;2023-07-02T03:21:28;1.10;;;1.10;;
47912;SDS011;33676;51.006;17.180;2023-07-02T03:23:58;1.50;;;1.40;;
47912;SDS011;33676;51.006;17.180;2023-07-02T03:26:26;1.50;;;1.30;;
47912;SDS011;33676;51.006;17.180;2023-07-02T03:28:54;2.00;;;1.60;;
47912;SDS011;33676;51.006;17.180;2023-07-02T03:31:23;1.60;;;1.40;;
47912;SDS011;33676;51.006;17.180;2023-07-02T03:33:51;2.80;;;1.70;;
47912;SDS011;33676;51.006;17.180;2023-07-02T03:36:20;6.10;;;1.50;;
47912;SDS011;33676;51.006;17.180;2023-07-02T03:38:48;1.40;;;1.20;;
47912;SDS011;33676;51.006;17.180;2023-07-02T03:41:17;6.40;;;1.60;;
47912;SDS011;33676;51.006;17.180;2023-07-02T03:43:45;1.50;;;1.40;;
47912;SDS011;33676;51.006;17.180;2023-07-02T03:46:13;1.80;;;1.70;;
47912;SDS011;33676;51.006;17.180;2023-07-02T03:48:42;1.90;;;1.80;;
47912;SDS011;33676;51.006;17.180;2023-07-02T03:51:11;2.40;;;1.30;;
47912;SDS011;33676;51.006;17.180;2023-07-02T03:53:43;1.20;;;1.20;;
47912;SDS011;33676;51.006;17.180;2023-07-02T03:56:11;1.30;;;1.30;;
47912;SDS011;33676;51.006;17.180;2023-07-02T03:58:40;1.80;;;1.50;;
47912;SDS011;33676;51.006;17.180;2023-07-02T04:01:09;1.90;;;1.80;;
47912;SDS011;33676;51.006;17.180;2023-07-02T04:03:37;2.00;;;1.60;;
47912;SDS011;33676;51.006;17.180;2023-07-02T04:06:06;1.10;;;1.10;;
47912;SDS011;33676;51.006;17.180;2023-07-02T04:08:34;1.30;;;1.30;;
47912;SDS011;33676;51.006;17.180;2023-07-02T04:11:03;2.50;;;1.90;;
47912;SDS011;33676;51.006;17.180;2023-07-02T04:13:31;4.40;;;1.50;;
47912;SDS011;33676;51.006;17.180;2023-07-02T04:16:00;4.00;;;2.00;;
47912;SDS011;33676;51.006;17.180;2023-07-02T04:18:28;2.60;;;1.60;;
47912;SDS011;33676;51.006;17.180;2023-07-02T04:21:00;1.50;;;1.40;;
47912;SDS011;33676;51.006;17.180;2023-07-02T04:23:29;2.30;;;1.70;;
47912;SDS011;33676;51.006;17.180;2023-07-02T04:25:58;1.90;;;1.20;;
47912;SDS011;33676;51.006;17.180;2023-07-02T04:28:47;1.70;;;1.60;;
47912;SDS011;33676;51.006;17.180;2023-07-02T04:31:15;2.50;;;1.60;;
47912;SDS011;33676;51.006;17.180;2023-07-02T04:33:44;2.90;;;1.70;;
47912;SDS011;33676;51.006;17.180;2023-07-02T04:36:12;2.50;;;1.60;;
47912;SDS011;33676;51.006;17.180;2023-07-02T04:38:41;1.70;;;1.30;;
47912;SDS011;33676;51.006;17.180;2023-07-02T04:41:09;2.30;;;2.10;;
47912;SDS011;33676;51.006;17.180;2023-07-02T04:43:38;2.10;;;1.90;;
47912;SDS011;33676;51.006;17.180;2023-07-02T04:46:06;2.70;;;2.10;;
47912;SDS011;33676;51.006;17.180;2023-07-02T04:48:36;1.70;;;1.60;;
47912;SDS011;33676;51.006;17.180;2023-07-02T04:51:04;1.50;;;1.50;;
47912;SDS011;33676;51.006;17.180;2023-07-02T04:53:32;1.70;;;1.60;;
47912;SDS011;33676;51.006;17.180;2023-07-02T04:56:01;1.50;;;1.40;;
47912;SDS011;33676;51.006;17.180;2023-07-02T04:58:29;2.60;;;2.20;;
47912;SDS011;33676;51.006;17.180;2023-07-02T05:00:58;2.60;;;2.10;;
47912;SDS011;33676;51.006;17.180;2023-07-02T05:03:26;2.00;;;1.90;;
47912;SDS011;33676;51.006;17.180;2023-07-02T05:05:55;2.00;;;1.80;;
47912;SDS011;33676;51.006;17.180;2023-07-02T05:08:23;1.90;;;1.80;;
47912;SDS011;33676;51.006;17.180;2023-07-02T05:10:52;2.60;;;1.40;;
47912;SDS011;33676;51.006;17.180;2023-07-02T05:13:20;1.80;;;1.70;;
47912;SDS011;33676;51.006;17.180;2023-07-02T05:15:49;2.40;;;1.90;;
47912;SDS011;33676;51.006;17.180;2023-07-02T05:18:17;1.90;;;1.30;;
47912;SDS011;33676;51.006;17.180;2023-07-02T05:20:45;2.00;;;1.90;;
47912;SDS011;33676;51.006;17.180;2023-07-02T05:23:15;2.00;;;1.70;;
47912;SDS011;33676;51.006;17.180;2023-07-02T05:25:43;2.10;;;2.00;;
47912;SDS011;33676;51.006;17.180;2023-07-02T05:28:14;1.00;;;1.00;;
47912;SDS011;33676;51.006;17.180;2023-07-02T05:30:42;1.60;;;1.50;;
47912;SDS011;33676;51.006;17.180;2023-07-02T05:33:11;2.20;;;1.70;;
47912;SDS011;33676;51.006;17.180;2023-07-02T05:35:39;1.50;;;1.50;;
47912;SDS011;33676;51.006;17.180;2023-07-02T05:38:08;1.40;;;1.40;;
47912;SDS011;33676;51.006;17.180;2023-07-02T05:40:36;1.60;;;1.50;;
47912;SDS011;33676;51.006;17.180;2023-07-02T05:43:05;1.60;;;1.50;;
47912;SDS011;33676;51.006;17.180;2023-07-02T05:45:34;1.50;;;1.50;;
47912;SDS011;33676;51.006;17.180;2023-07-02T05:48:02;1.70;;;1.60;;
47912;SDS011;33676;51.006;17.180;2023-07-02T05:50:31;1.80;;;1.70;;
47912;SDS011;33676;51.006;17.180;2023-07-02T05:52:59;1.80;;;1.70;;
47912;SDS011;33676;51.006;17.180;2023-07-02T05:55:28;3.40;;;2.10;;
47912;SDS011;33676;51.006;17.180;2023-07-02T05:57:56;1.80;;;1.50;;
47912;SDS011;33676;51.006;17.180;2023-07-02T06:00:29;2.50;;;1.80;;
47912;SDS011;33676;51.006;17.180;2023-07-02T06:02:58;1.50;;;1.40;;
47912;SDS011;33676;51.006;17.180;2023-07-02T06:05:26;1.50;;;1.50;;
47912;SDS011;33676;51.006;17.180;2023-07-02T06:07:55;1.60;;;1.60;;
47912;SDS011;33676;51.006;17.180;2023-07-02T06:10:24;1.80;;;1.70;;
47912;SDS011;33676;51.006;17.180;2023-07-02T06:12:52;2.30;;;2.20;;
47912;SDS011;33676;51.006;17.180;2023-07-02T06:15:20;1.70;;;1.60;;
47912;SDS011;33676;51.006;17.180;2023-07-02T06:17:49;1.70;;;1.60;;
47912;SDS011;33676;51.006;17.180;2023-07-02T06:20:18;2.80;;;1.80;;
47912;SDS011;33676;51.006;17.180;2023-07-02T06:22:47;1.70;;;1.60;;
47912;SDS011;33676;51.006;17.180;2023-07-02T06:25:15;1.50;;;1.40;;
47912;SDS011;33676;51.006;17.180;2023-07-02T06:27:43;2.00;;;1.70;;
47912;SDS011;33676;51.006;17.180;2023-07-02T06:30:12;1.60;;;1.50;;
47912;SDS011;33676;51.006;17.180;2023-07-02T06:32:41;1.90;;;1.40;;
47912;SDS011;33676;51.006;17.180;2023-07-02T06:35:09;2.60;;;1.50;;
47912;SDS011;33676;51.006;17.180;2023-07-02T06:37:38;2.40;;;1.90;;
47912;SDS011;33676;51.006;17.180;2023-07-02T06:40:06;1.70;;;1.60;;
47912;SDS011;33676;51.006;17.180;2023-07-02T06:42:35;1.90;;;1.80;;
47912;SDS011;33676;51.006;17.180;2023-07-02T06:45:04;1.50;;;1.40;;
47912;SDS011;33676;51.006;17.180;2023-07-02T06:47:33;3.20;;;2.00;;
47912;SDS011;33676;51.006;17.180;2023-07-02T06:50:02;1.80;;;1.70;;
47912;SDS011;33676;51.006;17.180;2023-07-02T06:52:30;1.80;;;1.70;;
47912;SDS011;33676;51.006;17.180;2023-07-02T06:56:58;2.30;;;2.10;;
47912;SDS011;33676;51.006;17.180;2023-07-02T06:59:27;2.30;;;2.00;;
47912;SDS011;33676;51.006;17.180;2023-07-02T07:01:57;1.70;;;1.60;;
47912;SDS011;33676;51.006;17.180;2023-07-02T07:04:26;1.90;;;1.60;;
47912;SDS011;33676;51.006;17.180;2023-07-02T07:08:40;1.90;;;1.80;;
47912;SDS011;33676;51.006;17.180;2023-07-02T07:11:08;2.50;;;2.20;;
47912;SDS011;33676;51.006;17.180;2023-07-02T07:13:37;1.80;;;1.70;;
47912;SDS011;33676;51.006;17.180;2023-07-02T07:16:05;2.40;;;2.20;;
47912;SDS011;33676;51.006;17.180;2023-07-02T07:18:34;2.40;;;2.20;;
47912;SDS011;33676;51.006;17.180;2023-07-02T07:21:03;2.60;;;2.50;;
47912;SDS011;33676;51.006;17.180;2023-07-02T07:23:31;2.40;;;2.30;;
47912;SDS011;33676;51.006;17.180;2023-07-02T07:25:59;2.20;;;2.10;;
47912;SDS011;33676;51.006;17.180;2023-07-02T07:28:28;2.90;;;2.80;;
47912;SDS011;33676;51.006;17.180;2023-07-02T07:30:56;2.30;;;2.10;;
47912;SDS011;33676;51.006;17.180;2023-07-02T07:33:25;2.60;;;2.20;;
47912;SDS011;33676;51.006;17.180;2023-07-02T07:35:53;2.50;;;2.40;;
47912;SDS011;33676;51.006;17.180;2023-07-02T07:38:22;3.50;;;2.30;;
47912;SDS011;33676;51.006;17.180;2023-07-02T07:40:50;1.90;;;1.90;;
47912;SDS011;33676;51.006;17.180;2023-07-02T07:43:19;1.90;;;1.80;;
47912;SDS011;33676;51.006;17.180;2023-07-02T07:45:47;1.80;;;1.70;;
47912;SDS011;33676;51.006;17.180;2023-07-02T07:48:16;2.10;;;2.00;;
47912;SDS011;33676;51.006;17.180;2023-07-02T07:50:44;2.70;;;2.20;;
47912;SDS011;33676;51.006;17.180;2023-07-02T07:53:13;2.70;;;2.50;;
47912;SDS011;33676;51.006;17.180;2023-07-02T07:55:42;4.80;;;1.90;;
47912;SDS011;33676;51.006;17.180;2023-07-02T07:58:10;1.80;;;1.80;;
47912;SDS011;33676;51.006;17.180;2023-07-02T08:00:39;1.90;;;1.90;;
47912;SDS011;33676;51.006;17.180;2023-07-02T08:03:09;2.40;;;2.30;;
47912;SDS011;33676;51.006;17.180;2023-07-02T08:05:38;2.50;;;2.40;;
47912;SDS011;33676;51.006;17.180;2023-07-02T08:08:07;2.20;;;2.00;;
47912;SDS011;33676;51.006;17.180;2023-07-02T08:10:36;2.10;;;2.00;;
47912;SDS011;33676;51.006;17.180;2023-07-02T08:13:05;2.10;;;2.00;;
47912;SDS011;33676;51.006;17.180;2023-07-02T08:15:33;4.60;;;2.10;;
47912;SDS011;33676;51.006;17.180;2023-07-02T08:18:02;1.80;;;1.70;;
47912;SDS011;33676;51.006;17.180;2023-07-02T08:20:32;1.80;;;1.80;;
47912;SDS011;33676;51.006;17.180;2023-07-02T08:23:00;2.20;;;2.10;;
47912;SDS011;33676;51.006;17.180;2023-07-02T08:25:29;2.20;;;1.90;;
47912;SDS011;33676;51.006;17.180;2023-07-02T08:27:58;2.20;;;2.10;;
47912;SDS011;33676;51.006;17.180;2023-07-02T08:30:26;2.00;;;1.90;;
47912;SDS011;33676;51.006;17.180;2023-07-02T08:32:55;1.80;;;1.80;;
47912;SDS011;33676;51.006;17.180;2023-07-02T08:35:24;2.60;;;2.50;;
47912;SDS011;33676;51.006;17.180;2023-07-02T08:40:19;3.90;;;2.30;;
47912;SDS011;33676;51.006;17.180;2023-07-02T08:42:50;2.50;;;2.30;;
47912;SDS011;33676;51.006;17.180;2023-07-02T08:45:19;2.00;;;1.90;;
47912;SDS011;33676;51.006;17.180;2023-07-02T08:47:50;2.10;;;2.00;;
47912;SDS011;33676;51.006;17.180;2023-07-02T08:50:22;1.60;;;1.60;;
47912;SDS011;33676;51.006;17.180;2023-07-02T08:52:53;2.30;;;2.20;;
47912;SDS011;33676;51.006;17.180;2023-07-02T08:55:22;1.80;;;1.70;;
47912;SDS011;33676;51.006;17.180;2023-07-02T08:57:53;1.40;;;1.40;;
47912;SDS011;33676;51.006;17.180;2023-07-02T09:00:22;2.10;;;2.00;;
47912;SDS011;33676;51.006;17.180;2023-07-02T09:02:51;1.70;;;1.50;;
47912;SDS011;33676;51.006;17.180;2023-07-02T09:05:19;1.80;;;1.70;;
47912;SDS011;33676;51.006;17.180;2023-07-02T09:07:49;1.70;;;1.70;;
47912;SDS011;33676;51.006;17.180;2023-07-02T09:10:29;1.70;;;1.60;;
47912;SDS011;33676;51.006;17.180;2023-07-02T09:13:06;1.90;;;1.70;;
47912;SDS011;33676;51.006;17.180;2023-07-02T09:15:39;1.90;;;1.90;;
47912;SDS011;33676;51.006;17.180;2023-07-02T09:20:45;1.80;;;1.70;;
47912;SDS011;33676;51.006;17.180;2023-07-02T09:23:15;1.90;;;1.80;;
47912;SDS011;33676;51.006;17.180;2023-07-02T09:25:44;1.30;;;1.30;;
47912;SDS011;33676;51.006;17.180;2023-07-02T09:28:22;1.60;;;1.60;;
47912;SDS011;33676;51.006;17.180;2023-07-02T09:30:55;1.40;;;1.40;;
47912;SDS011;33676;51.006;17.180;2023-07-02T09:33:27;1.90;;;1.80;;
47912;SDS011;33676;51.006;17.180;2023-07-02T09:35:57;1.70;;;1.60;;
47912;SDS011;33676;51.006;17.180;2023-07-02T09:38:26;1.50;;;1.40;;
47912;SDS011;33676;51.006;17.180;2023-07-02T09:40:55;1.90;;;1.80;;
47912;SDS011;33676;51.006;17.180;2023-07-02T09:43:24;1.70;;;1.60;;
47912;SDS011;33676;51.006;17.180;2023-07-02T09:45:54;2.10;;;1.90;;
47912;SDS011;33676;51.006;17.180;2023-07-02T09:48:25;2.10;;;2.00;;
47912;SDS011;33676;51.006;17.180;2023-07-02T09:50:57;2.00;;;1.90;;
47912;SDS011;33676;51.006;17.180;2023-07-02T09:53:28;1.50;;;1.50;;
47912;SDS011;33676;51.006;17.180;2023-07-02T09:55:57;2.10;;;2.00;;
47912;SDS011;33676;51.006;17.180;2023-07-02T09:58:25;1.50;;;1.50;;
47912;SDS011;33676;51.006;17.180;2023-07-02T10:00:55;2.20;;;2.10;;
47912;SDS011;33676;51.006;17.180;2023-07-02T10:03:30;1.80;;;1.70;;
47912;SDS011;33676;51.006;17.180;2023-07-02T10:06:06;2.10;;;1.80;;
47912;SDS011;33676;51.006;17.180;2023-07-02T10:08:35;3.10;;;1.80;;
47912;SDS011;33676;51.006;17.180;2023-07-02T10:11:11;2.10;;;2.00;;
47912;SDS011;33676;51.006;17.180;2023-07-02T10:13:44;3.10;;;2.20;;
47912;SDS011;33676;51.006;17.180;2023-07-02T10:16:12;3.30;;;2.10;;
47912;SDS011;33676;51.006;17.180;2023-07-02T10:18:41;2.60;;;2.40;;
47912;SDS011;33676;51.006;17.180;2023-07-02T10:21:16;2.10;;;2.00;;
47912;SDS011;33676;51.006;17.180;2023-07-02T10:23:45;2.10;;;2.00;;
47912;SDS011;33676;51.006;17.180;2023-07-02T10:26:15;2.00;;;1.80;;
47912;SDS011;33676;51.006;17.180;2023-07-02T10:28:58;2.50;;;2.30;;
47912;SDS011;33676;51.006;17.180;2023-07-02T10:31:27;3.10;;;1.90;;
47912;SDS011;33676;51.006;17.180;2023-07-02T10:33:56;2.00;;;1.90;;
47912;SDS011;33676;51.006;17.180;2023-07-02T10:36:25;2.00;;;1.80;;
47912;SDS011;33676;51.006;17.180;2023-07-02T10:39:00;2.40;;;2.00;;
47912;SDS011;33676;51.006;17.180;2023-07-02T10:41:31;2.10;;;2.00;;
47912;SDS011;33676;51.006;17.180;2023-07-02T10:44:08;1.90;;;1.80;;
47912;SDS011;33676;51.006;17.180;2023-07-02T10:46:47;2.60;;;2.50;;
47912;SDS011;33676;51.006;17.180;2023-07-02T10:49:17;2.30;;;2.20;;
47912;SDS011;33676;51.006;17.180;2023-07-02T10:51:58;2.00;;;1.90;;
47912;SDS011;33676;51.006;17.180;2023-07-02T10:54:47;1.90;;;1.80;;
47912;SDS011;33676;51.006;17.180;2023-07-02T10:57:18;2.10;;;1.90;;
47912;SDS011;33676;51.006;17.180;2023-07-02T10:59:51;1.70;;;1.60;;
47912;SDS011;33676;51.006;17.180;2023-07-02T11:02:19;2.50;;;2.30;;
47912;SDS011;33676;51.006;17.180;2023-07-02T11:04:48;1.50;;;1.50;;
47912;SDS011;33676;51.006;17.180;2023-07-02T11:07:22;2.20;;;2.10;;
47912;SDS011;33676;51.006;17.180;2023-07-02T11:09:53;2.20;;;2.10;;
47912;SDS011;33676;51.006;17.180;2023-07-02T11:12:29;1.30;;;1.30;;
47912;SDS011;33676;51.006;17.180;2023-07-02T11:15:11;1.50;;;1.40;;
47912;SDS011;33676;51.006;17.180;2023-07-02T11:17:41;2.00;;;1.90;;
47912;SDS011;33676;51.006;17.180;2023-07-02T11:20:12;1.90;;;1.80;;
47912;SDS011;33676;51.006;17.180;2023-07-02T11:22:42;1.70;;;1.60;;
47912;SDS011;33676;51.006;17.180;2023-07-02T11:25:14;2.10;;;2.00;;
47912;SDS011;33676;51.006;17.180;2023-07-02T11:27:44;1.70;;;1.60;;
47912;SDS011;33676;51.006;17.180;2023-07-02T11:30:13;2.20;;;1.60;;
47912;SDS011;33676;51.006;17.180;2023-07-02T11:32:53;2.30;;;1.80;;
47912;SDS011;33676;51.006;17.180;2023-07-02T11:35:36;1.70;;;1.40;;
47912;SDS011;33676;51.006;17.180;2023-07-02T11:38:04;1.80;;;1.70;;
47912;SDS011;33676;51.006;17.180;2023-07-02T11:40:33;1.50;;;1.50;;
47912;SDS011;33676;51.006;17.180;2023-07-02T11:43:02;4.70;;;2.10;;
47912;SDS011;33676;51.006;17.180;2023-07-02T11:45:30;3.10;;;2.10;;
47912;SDS011;33676;51.006;17.180;2023-07-02T11:47:59;2.10;;;1.90;;
47912;SDS011;33676;51.006;17.180;2023-07-02T11:50:27;1.60;;;1.50;;
47912;SDS011;33676;51.006;17.180;2023-07-02T11:52:58;1.80;;;1.70;;
47912;SDS011;33676;51.006;17.180;2023-07-02T11:55:28;1.70;;;1.60;;
47912;SDS011;33676;51.006;17.180;2023-07-02T11:57:57;2.00;;;1.90;;
47912;SDS011;33676;51.006;17.180;2023-07-02T12:00:25;2.00;;;2.00;;
47912;SDS011;33676;51.006;17.180;2023-07-02T12:02:55;2.00;;;1.90;;
47912;SDS011;33676;51.006;17.180;2023-07-02T12:05:24;1.60;;;1.60;;
47912;SDS011;33676;51.006;17.180;2023-07-02T12:07:52;2.00;;;1.90;;
47912;SDS011;33676;51.006;17.180;2023-07-02T12:10:21;1.60;;;1.60;;
47912;SDS011;33676;51.006;17.180;2023-07-02T12:21:15;1.30;;;1.30;;
47912;SDS011;33676;51.006;17.180;2023-07-02T12:23:46;1.30;;;1.30;;
47912;SDS011;33676;51.006;17.180;2023-07-02T12:26:14;1.50;;;1.50;;
47912;SDS011;33676;51.006;17.180;2023-07-02T12:28:43;1.80;;;1.80;;
47912;SDS011;33676;51.006;17.180;2023-07-02T12:31:12;1.40;;;1.40;;
47912;SDS011;33676;51.006;17.180;2023-07-02T12:33:41;1.90;;;1.90;;
47912;SDS011;33676;51.006;17.180;2023-07-02T12:36:10;1.80;;;1.70;;
47912;SDS011;33676;51.006;17.180;2023-07-02T12:38:38;1.70;;;1.70;;
47912;SDS011;33676;51.006;17.180;2023-07-02T12:41:07;1.50;;;1.50;;
47912;SDS011;33676;51.006;17.180;2023-07-02T12:43:35;1.30;;;1.20;;
47912;SDS011;33676;51.006;17.180;2023-07-02T12:46:06;1.80;;;1.20;;
47912;SDS011;33676;51.006;17.180;2023-07-02T12:48:35;1.30;;;1.30;;
47912;SDS011;33676;51.006;17.180;2023-07-02T12:51:04;1.50;;;1.40;;
47912;SDS011;33676;51.006;17.180;2023-07-02T12:53:33;1.40;;;1.40;;
47912;SDS011;33676;51.006;17.180;2023-07-02T12:56:02;2.60;;;1.90;;
47912;SDS011;33676;51.006;17.180;2023-07-02T12:58:31;2.10;;;1.80;;
47912;SDS011;33676;51.006;17.180;2023-07-02T13:01:00;1.40;;;1.40;;
47912;SDS011;33676;51.006;17.180;2023-07-02T13:03:32;1.80;;;1.50;;
47912;SDS011;33676;51.006;17.180;2023-07-02T13:06:02;1.40;;;1.30;;
47912;SDS011;33676;51.006;17.180;2023-07-02T13:08:34;2.60;;;1.50;;
47912;SDS011;33676;51.006;17.180;2023-07-02T13:11:02;2.10;;;1.50;;
47912;SDS011;33676;51.006;17.180;2023-07-02T13:13:31;1.70;;;1.60;;
47912;SDS011;33676;51.006;17.180;2023-07-02T13:16:02;3.70;;;1.90;;
47912;SDS011;33676;51.006;17.180;2023-07-02T13:18:32;2.40;;;1.60;;
47912;SDS011;33676;51.006;17.180;2023-07-02T13:21:03;1.40;;;1.40;;
47912;SDS011;33676;51.006;17.180;2023-07-02T13:23:32;1.70;;;1.60;;
47912;SDS011;33676;51.006;17.180;2023-07-02T13:26:01;1.50;;;1.50;;
47912;SDS011;33676;51.006;17.180;2023-07-02T13:28:29;1.50;;;1.50;;
47912;SDS011;33676;51.006;17.180;2023-07-02T13:30:58;1.40;;;1.40;;
47912;SDS011;33676;51.006;17.180;2023-07-02T13:33:27;1.60;;;1.50;;
47912;SDS011;33676;51.006;17.180;2023-07-02T13:35:57;1.70;;;1.60;;
47912;SDS011;33676;51.006;17.180;2023-07-02T13:38:26;1.60;;;1.50;;
47912;SDS011;33676;51.006;17.180;2023-07-02T13:40:55;1.70;;;1.40;;
47912;SDS011;33676;51.006;17.180;2023-07-02T13:43:23;1.70;;;1.70;;
47912;SDS011;33676;51.006;17.180;2023-07-02T13:45:52;1.50;;;1.10;;
47912;SDS011;33676;51.006;17.180;2023-07-02T13:48:20;1.60;;;1.40;;
47912;SDS011;33676;51.006;17.180;2023-07-02T13:50:49;1.80;;;1.80;;
47912;SDS011;33676;51.006;17.180;2023-07-02T13:53:17;1.90;;;1.40;;
47912;SDS011;33676;51.006;17.180;2023-07-02T13:55:46;1.00;;;1.00;;
47912;SDS011;33676;51.006;17.180;2023-07-02T13:58:15;1.70;;;1.60;;
47912;SDS011;33676;51.006;17.180;2023-07-02T14:00:56;2.80;;;1.60;;
47912;SDS011;33676;51.006;17.180;2023-07-02T14:03:25;2.10;;;1.40;;
47912;SDS011;33676;51.006;17.180;2023-07-02T14:05:54;1.60;;;1.50;;
47912;SDS011;33676;51.006;17.180;2023-07-02T14:08:23;1.30;;;1.30;;
47912;SDS011;33676;51.006;17.180;2023-07-02T14:10:51;7.60;;;1.70;;
47912;SDS011;33676;51.006;17.180;2023-07-02T14:13:20;1.50;;;1.40;;
47912;SDS011;33676;51.006;17.180;2023-07-02T14:15:49;1.70;;;1.60;;
47912;SDS011;33676;51.006;17.180;2023-07-02T14:18:19;3.30;;;1.90;;
47912;SDS011;33676;51.006;17.180;2023-07-02T14:20:47;1.50;;;1.50;;
47912;SDS011;33676;51.006;17.180;2023-07-02T14:23:16;1.40;;;1.30;;
47912;SDS011;33676;51.006;17.180;2023-07-02T14:25:44;1.30;;;1.30;;
47912;SDS011;33676;51.006;17.180;2023-07-02T14:28:13;2.10;;;1.90;;
47912;SDS011;33676;51.006;17.180;2023-07-02T14:30:41;1.60;;;1.50;;
47912;SDS011;33676;51.006;17.180;2023-07-02T14:33:11;3.40;;;1.70;;
47912;SDS011;33676;51.006;17.180;2023-07-02T14:35:39;3.20;;;1.60;;
47912;SDS011;33676;51.006;17.180;2023-07-02T14:38:08;1.50;;;1.50;;
47912;SDS011;33676;51.006;17.180;2023-07-02T14:40:37;3.00;;;1.40;;
47912;SDS011;33676;51.006;17.180;2023-07-02T14:43:06;1.90;;;1.40;;
47912;SDS011;33676;51.006;17.180;2023-07-02T14:45:35;1.80;;;1.60;;
47912;SDS011;33676;51.006;17.180;2023-07-02T14:48:04;3.50;;;1.70;;
47912;SDS011;33676;51.006;17.180;2023-07-02T14:50:32;3.80;;;1.60;;
47912;SDS011;33676;51.006;17.180;2023-07-02T14:53:02;1.60;;;1.50;;
47912;SDS011;33676;51.006;17.180;2023-07-02T14:55:31;1.30;;;1.30;;
47912;SDS011;33676;51.006;17.180;2023-07-02T14:57:59;2.00;;;1.90;;
47912;SDS011;33676;51.006;17.180;2023-07-02T15:00:27;1.70;;;1.60;;
47912;SDS011;33676;51.006;17.180;2023-07-02T15:02:56;1.40;;;1.40;;
47912;SDS011;33676;51.006;17.180;2023-07-02T15:05:25;2.40;;;1.50;;
47912;SDS011;33676;51.006;17.180;2023-07-02T15:07:53;1.50;;;1.40;;